sensor_id;sensor_type;location;lat;lon;timestamp;temperature;humidity
55693;DHT22;41590;53.366;5.212;2022-09-24T00:00:24;14.50;99.90
55693;DHT22;41590;53.366;5.212;2022-09-24T00:02:50;14.50;99.90
55693;DHT22;41590;53.366;5.212;2022-09-24T00:05:20;14.50;99.90
55693;DHT22;41590;53.366;5.212;2022-09-24T00:07:46;14.40;99.90
55693;DHT22;41590;53.366;5.212;2022-09-24T00:10:16;14.50;99.90
55693;DHT22;41590;53.366;5.212;2022-09-24T00:12:42;14.40;99.90
55693;DHT22;41590;53.366;5.212;2022-09-24T00:15:08;14.50;99.90
55693;DHT22;41590;53.366;5.212;2022-09-24T00:17:34;14.50;99.90
55693;DHT22;41590;53.366;5.212;2022-09-24T00:20:19;14.40;99.90
55693;DHT22;41590;53.366;5.212;2022-09-24T00:22:49;14.50;99.90
55693;DHT22;41590;53.366;5.212;2022-09-24T00:25:14;14.40;99.90
55693;DHT22;41590;53.366;5.212;2022-09-24T00:27:58;14.40;99.90
55693;DHT22;41590;53.366;5.212;2022-09-24T00:30:26;14.40;99.90
55693;DHT22;41590;53.366;5.212;2022-09-24T00:32:55;14.30;99.90
55693;DHT22;41590;53.366;5.212;2022-09-24T00:35:23;14.30;99.90
55693;DHT22;41590;53.366;5.212;2022-09-24T00:37:52;14.30;99.90
55693;DHT22;41590;53.366;5.212;2022-09-24T00:40:18;14.30;99.90
55693;DHT22;41590;53.366;5.212;2022-09-24T00:42:59;14.30;99.90
55693;DHT22;41590;53.366;5.212;2022-09-24T00:45:30;14.30;99.90
55693;DHT22;41590;53.366;5.212;2022-09-24T00:47:57;14.30;99.90
55693;DHT22;41590;53.366;5.212;2022-09-24T00:50:37;14.30;99.90
55693;DHT22;41590;53.366;5.212;2022-09-24T00:53:15;14.30;99.90
55693;DHT22;41590;53.366;5.212;2022-09-24T00:55:52;14.30;99.90
55693;DHT22;41590;53.366;5.212;2022-09-24T00:58:33;14.30;99.90
55693;DHT22;41590;53.366;5.212;2022-09-24T01:01:06;14.30;99.90
55693;DHT22;41590;53.366;5.212;2022-09-24T01:03:39;14.30;99.90
55693;DHT22;41590;53.366;5.212;2022-09-24T01:06:08;14.30;99.90
55693;DHT22;41590;53.366;5.212;2022-09-24T01:08:35;14.30;99.90
55693;DHT22;41590;53.366;5.212;2022-09-24T01:11:40;14.30;99.90
55693;DHT22;41590;53.366;5.212;2022-09-24T01:17:27;14.30;99.90
55693;DHT22;41590;53.366;5.212;2022-09-24T01:34:47;14.20;99.90
55693;DHT22;41590;53.366;5.212;2022-09-24T01:37:17;14.20;99.90
55693;DHT22;41590;53.366;5.212;2022-09-24T01:39:45;14.20;99.90
55693;DHT22;41590;53.366;5.212;2022-09-24T01:42:18;14.10;99.90
55693;DHT22;41590;53.366;5.212;2022-09-24T01:44:47;14.20;99.90
55693;DHT22;41590;53.366;5.212;2022-09-24T01:47:41;14.20;99.90
55693;DHT22;41590;53.366;5.212;2022-09-24T01:50:11;14.20;99.90
55693;DHT22;41590;53.366;5.212;2022-09-24T01:55:24;14.10;99.90
55693;DHT22;41590;53.366;5.212;2022-09-24T01:57:59;14.20;99.90
55693;DHT22;41590;53.366;5.212;2022-09-24T02:00:25;14.20;99.90
55693;DHT22;41590;53.366;5.212;2022-09-24T02:03:21;14.20;99.90
55693;DHT22;41590;53.366;5.212;2022-09-24T02:06:09;14.20;99.90
55693;DHT22;41590;53.366;5.212;2022-09-24T02:09:26;14.20;99.90
55693;DHT22;41590;53.366;5.212;2022-09-24T02:11:53;14.20;99.90
55693;DHT22;41590;53.366;5.212;2022-09-24T02:18:10;14.20;99.90
55693;DHT22;41590;53.366;5.212;2022-09-24T02:20:48;14.20;99.90
55693;DHT22;41590;53.366;5.212;2022-09-24T02:23:16;14.10;99.90
55693;DHT22;41590;53.366;5.212;2022-09-24T02:28:45;14.00;99.90
55693;DHT22;41590;53.366;5.212;2022-09-24T02:31:14;14.00;99.90
55693;DHT22;41590;53.366;5.212;2022-09-24T02:33:56;13.90;99.90
55693;DHT22;41590;53.366;5.212;2022-09-24T02:36:42;13.90;99.90
55693;DHT22;41590;53.366;5.212;2022-09-24T02:39:08;13.80;99.90
55693;DHT22;41590;53.366;5.212;2022-09-24T02:41:39;13.70;99.90
55693;DHT22;41590;53.366;5.212;2022-09-24T02:44:19;13.60;99.90
55693;DHT22;41590;53.366;5.212;2022-09-24T02:46:45;13.60;99.90
55693;DHT22;41590;53.366;5.212;2022-09-24T02:49:13;13.60;99.90
55693;DHT22;41590;53.366;5.212;2022-09-24T02:51:43;13.50;99.90
55693;DHT22;41590;53.366;5.212;2022-09-24T02:54:22;13.50;99.90
55693;DHT22;41590;53.366;5.212;2022-09-24T02:56:52;13.50;99.90
55693;DHT22;41590;53.366;5.212;2022-09-24T02:59:18;13.40;99.90
55693;DHT22;41590;53.366;5.212;2022-09-24T03:01:56;13.40;99.90
55693;DHT22;41590;53.366;5.212;2022-09-24T03:06:55;13.30;99.90
55693;DHT22;41590;53.366;5.212;2022-09-24T03:09:24;13.30;99.90
55693;DHT22;41590;53.366;5.212;2022-09-24T03:12:10;13.30;99.90
55693;DHT22;41590;53.366;5.212;2022-09-24T03:14:39;13.20;99.90
55693;DHT22;41590;53.366;5.212;2022-09-24T03:17:07;13.20;99.90
55693;DHT22;41590;53.366;5.212;2022-09-24T03:19:43;13.20;99.90
55693;DHT22;41590;53.366;5.212;2022-09-24T03:22:13;13.20;99.90
55693;DHT22;41590;53.366;5.212;2022-09-24T03:24:46;13.20;99.90
55693;DHT22;41590;53.366;5.212;2022-09-24T03:27:17;13.20;99.90
55693;DHT22;41590;53.366;5.212;2022-09-24T03:29:44;13.20;99.90
55693;DHT22;41590;53.366;5.212;2022-09-24T03:32:29;13.20;99.90
55693;DHT22;41590;53.366;5.212;2022-09-24T03:35:06;13.30;99.90
55693;DHT22;41590;53.366;5.212;2022-09-24T03:37:35;13.40;99.90
55693;DHT22;41590;53.366;5.212;2022-09-24T03:40:03;13.40;99.90
55693;DHT22;41590;53.366;5.212;2022-09-24T03:42:33;13.50;99.90
55693;DHT22;41590;53.366;5.212;2022-09-24T03:44:59;13.40;99.90
55693;DHT22;41590;53.366;5.212;2022-09-24T03:47:32;13.50;99.90
55693;DHT22;41590;53.366;5.212;2022-09-24T03:50:03;13.40;99.90
55693;DHT22;41590;53.366;5.212;2022-09-24T03:52:31;13.40;99.90
55693;DHT22;41590;53.366;5.212;2022-09-24T03:55:02;13.30;99.90
55693;DHT22;41590;53.366;5.212;2022-09-24T03:57:31;13.20;99.90
55693;DHT22;41590;53.366;5.212;2022-09-24T03:59:58;13.20;99.90
55693;DHT22;41590;53.366;5.212;2022-09-24T04:02:49;13.10;99.90
55693;DHT22;41590;53.366;5.212;2022-09-24T04:05:19;13.10;99.90
55693;DHT22;41590;53.366;5.212;2022-09-24T04:07:46;13.10;99.90
55693;DHT22;41590;53.366;5.212;2022-09-24T04:10:16;13.10;99.90
55693;DHT22;41590;53.366;5.212;2022-09-24T04:12:46;13.00;99.90
55693;DHT22;41590;53.366;5.212;2022-09-24T04:15:14;13.00;99.90
55693;DHT22;41590;53.366;5.212;2022-09-24T04:17:59;13.00;99.90
55693;DHT22;41590;53.366;5.212;2022-09-24T04:21:02;13.00;99.90
55693;DHT22;41590;53.366;5.212;2022-09-24T04:23:35;13.00;99.90
55693;DHT22;41590;53.366;5.212;2022-09-24T04:26:04;13.20;99.90
55693;DHT22;41590;53.366;5.212;2022-09-24T04:28:48;13.20;99.90
55693;DHT22;41590;53.366;5.212;2022-09-24T04:31:27;13.20;99.90
55693;DHT22;41590;53.366;5.212;2022-09-24T04:33:54;13.30;99.90
55693;DHT22;41590;53.366;5.212;2022-09-24T04:36:27;13.30;99.90
55693;DHT22;41590;53.366;5.212;2022-09-24T04:38:54;13.30;99.90
55693;DHT22;41590;53.366;5.212;2022-09-24T04:41:22;13.40;99.90
55693;DHT22;41590;53.366;5.212;2022-09-24T04:44:00;13.40;99.90
55693;DHT22;41590;53.366;5.212;2022-09-24T04:46:29;13.40;99.90
55693;DHT22;41590;53.366;5.212;2022-09-24T04:49:03;13.40;99.90
55693;DHT22;41590;53.366;5.212;2022-09-24T04:58:16;13.50;99.90
55693;DHT22;41590;53.366;5.212;2022-09-24T05:00:49;13.50;99.90
55693;DHT22;41590;53.366;5.212;2022-09-24T05:03:41;13.50;99.90
55693;DHT22;41590;53.366;5.212;2022-09-24T05:06:11;13.60;99.90
55693;DHT22;41590;53.366;5.212;2022-09-24T05:11:52;13.60;99.90
55693;DHT22;41590;53.366;5.212;2022-09-24T05:14:36;13.60;99.90
55693;DHT22;41590;53.366;5.212;2022-09-24T05:17:04;13.60;99.90
55693;DHT22;41590;53.366;5.212;2022-09-24T05:19:34;13.60;99.90
55693;DHT22;41590;53.366;5.212;2022-09-24T05:22:32;13.60;99.90
55693;DHT22;41590;53.366;5.212;2022-09-24T05:25:01;13.50;99.90
55693;DHT22;41590;53.366;5.212;2022-09-24T05:27:51;13.40;99.90
55693;DHT22;41590;53.366;5.212;2022-09-24T05:30:19;13.50;99.90
55693;DHT22;41590;53.366;5.212;2022-09-24T05:32:58;13.50;99.90
55693;DHT22;41590;53.366;5.212;2022-09-24T05:35:34;13.60;99.90
55693;DHT22;41590;53.366;5.212;2022-09-24T05:38:33;13.60;99.90
55693;DHT22;41590;53.366;5.212;2022-09-24T05:44:00;13.70;99.90
55693;DHT22;41590;53.366;5.212;2022-09-24T05:46:36;13.70;99.90
55693;DHT22;41590;53.366;5.212;2022-09-24T05:49:06;13.70;99.90
55693;DHT22;41590;53.366;5.212;2022-09-24T05:51:39;13.70;99.90
55693;DHT22;41590;53.366;5.212;2022-09-24T05:54:06;13.60;99.90
55693;DHT22;41590;53.366;5.212;2022-09-24T05:56:32;13.60;99.90
55693;DHT22;41590;53.366;5.212;2022-09-24T05:58:58;13.60;99.90
55693;DHT22;41590;53.366;5.212;2022-09-24T06:01:44;13.60;99.90
55693;DHT22;41590;53.366;5.212;2022-09-24T06:04:15;13.50;99.90
55693;DHT22;41590;53.366;5.212;2022-09-24T06:06:42;13.50;99.90
55693;DHT22;41590;53.366;5.212;2022-09-24T06:09:13;13.60;99.90
55693;DHT22;41590;53.366;5.212;2022-09-24T06:11:40;13.50;99.90
55693;DHT22;41590;53.366;5.212;2022-09-24T06:14:08;13.60;99.90
55693;DHT22;41590;53.366;5.212;2022-09-24T06:16:59;13.60;99.90
55693;DHT22;41590;53.366;5.212;2022-09-24T06:19:26;13.70;99.90
55693;DHT22;41590;53.366;5.212;2022-09-24T06:21:59;13.70;99.90
55693;DHT22;41590;53.366;5.212;2022-09-24T06:27:39;13.90;99.90
55693;DHT22;41590;53.366;5.212;2022-09-24T06:30:41;13.90;99.90
55693;DHT22;41590;53.366;5.212;2022-09-24T06:36:54;14.20;99.90
55693;DHT22;41590;53.366;5.212;2022-09-24T06:43:02;14.40;99.90
55693;DHT22;41590;53.366;5.212;2022-09-24T06:45:35;14.50;99.90
55693;DHT22;41590;53.366;5.212;2022-09-24T06:57:34;14.30;99.90
55693;DHT22;41590;53.366;5.212;2022-09-24T07:00:07;14.20;99.90
55693;DHT22;41590;53.366;5.212;2022-09-24T07:02:33;14.20;99.90
55693;DHT22;41590;53.366;5.212;2022-09-24T07:05:05;14.20;99.90
55693;DHT22;41590;53.366;5.212;2022-09-24T07:07:32;14.10;99.90
55693;DHT22;41590;53.366;5.212;2022-09-24T07:10:07;14.10;99.90
55693;DHT22;41590;53.366;5.212;2022-09-24T07:12:34;14.20;99.90
55693;DHT22;41590;53.366;5.212;2022-09-24T07:15:01;14.30;99.90
55693;DHT22;41590;53.366;5.212;2022-09-24T07:17:31;14.30;99.90
55693;DHT22;41590;53.366;5.212;2022-09-24T07:20:03;14.40;99.90
55693;DHT22;41590;53.366;5.212;2022-09-24T07:25:55;14.50;99.90
55693;DHT22;41590;53.366;5.212;2022-09-24T07:28:39;14.50;99.90
55693;DHT22;41590;53.366;5.212;2022-09-24T07:31:21;14.40;99.90
55693;DHT22;41590;53.366;5.212;2022-09-24T07:34:06;14.40;99.90
55693;DHT22;41590;53.366;5.212;2022-09-24T07:36:34;14.40;99.90
55693;DHT22;41590;53.366;5.212;2022-09-24T07:39:03;14.40;99.90
55693;DHT22;41590;53.366;5.212;2022-09-24T07:41:53;14.50;99.90
55693;DHT22;41590;53.366;5.212;2022-09-24T07:44:49;14.50;99.90
55693;DHT22;41590;53.366;5.212;2022-09-24T07:47:34;14.60;99.90
55693;DHT22;41590;53.366;5.212;2022-09-24T07:50:06;14.60;99.90
55693;DHT22;41590;53.366;5.212;2022-09-24T07:56:21;14.60;99.90
55693;DHT22;41590;53.366;5.212;2022-09-24T08:02:54;15.00;99.90
55693;DHT22;41590;53.366;5.212;2022-09-24T08:30:34;15.40;99.90
55693;DHT22;41590;53.366;5.212;2022-09-24T08:47:02;15.90;99.90
55693;DHT22;41590;53.366;5.212;2022-09-24T08:49:53;16.00;99.90
55693;DHT22;41590;53.366;5.212;2022-09-24T08:55:31;16.10;99.90
55693;DHT22;41590;53.366;5.212;2022-09-24T09:03:40;16.40;99.90
55693;DHT22;41590;53.366;5.212;2022-09-24T09:06:36;16.50;99.90
55693;DHT22;41590;53.366;5.212;2022-09-24T09:11:38;16.70;99.90
55693;DHT22;41590;53.366;5.212;2022-09-24T09:14:36;16.80;99.90
55693;DHT22;41590;53.366;5.212;2022-09-24T09:19:55;17.20;99.90
55693;DHT22;41590;53.366;5.212;2022-09-24T09:22:29;17.40;99.90
55693;DHT22;41590;53.366;5.212;2022-09-24T09:27:48;17.60;99.90
55693;DHT22;41590;53.366;5.212;2022-09-24T09:30:16;17.70;99.90
55693;DHT22;41590;53.366;5.212;2022-09-24T09:48:28;17.90;99.90
55693;DHT22;41590;53.366;5.212;2022-09-24T09:51:16;18.20;99.90
55693;DHT22;41590;53.366;5.212;2022-09-24T09:54:19;18.20;99.90
55693;DHT22;41590;53.366;5.212;2022-09-24T09:57:48;18.30;99.90
55693;DHT22;41590;53.366;5.212;2022-09-24T10:00:39;18.50;99.90
55693;DHT22;41590;53.366;5.212;2022-09-24T10:11:03;18.20;99.90
55693;DHT22;41590;53.366;5.212;2022-09-24T10:16:53;18.10;99.90
55693;DHT22;41590;53.366;5.212;2022-09-24T10:19:24;18.10;99.90
55693;DHT22;41590;53.366;5.212;2022-09-24T10:22:29;18.20;99.90
55693;DHT22;41590;53.366;5.212;2022-09-24T10:24:56;18.20;99.90
55693;DHT22;41590;53.366;5.212;2022-09-24T10:27:35;18.00;99.90
55693;DHT22;41590;53.366;5.212;2022-09-24T10:30:12;17.90;99.90
55693;DHT22;41590;53.366;5.212;2022-09-24T10:33:01;18.10;99.90
55693;DHT22;41590;53.366;5.212;2022-09-24T10:35:35;18.20;99.90
55693;DHT22;41590;53.366;5.212;2022-09-24T10:38:21;18.20;99.90
55693;DHT22;41590;53.366;5.212;2022-09-24T10:40:50;18.20;99.90
55693;DHT22;41590;53.366;5.212;2022-09-24T10:43:21;18.30;99.90
55693;DHT22;41590;53.366;5.212;2022-09-24T10:51:11;18.40;99.90
55693;DHT22;41590;53.366;5.212;2022-09-24T10:56:38;18.30;99.90
55693;DHT22;41590;53.366;5.212;2022-09-24T10:59:29;18.30;99.90
55693;DHT22;41590;53.366;5.212;2022-09-24T11:02:22;18.40;99.90
55693;DHT22;41590;53.366;5.212;2022-09-24T11:05:06;18.40;99.90
55693;DHT22;41590;53.366;5.212;2022-09-24T11:18:51;18.90;99.90
55693;DHT22;41590;53.366;5.212;2022-09-24T12:09:40;18.70;99.90
55693;DHT22;41590;53.366;5.212;2022-09-24T12:12:51;18.80;99.90
55693;DHT22;41590;53.366;5.212;2022-09-24T12:16:03;18.80;99.90
55693;DHT22;41590;53.366;5.212;2022-09-24T12:19:00;18.90;99.90
55693;DHT22;41590;53.366;5.212;2022-09-24T12:21:51;18.80;99.90
55693;DHT22;41590;53.366;5.212;2022-09-24T12:24:50;18.90;99.90
55693;DHT22;41590;53.366;5.212;2022-09-24T12:39:17;18.60;99.90
55693;DHT22;41590;53.366;5.212;2022-09-24T12:41:58;18.60;99.90
55693;DHT22;41590;53.366;5.212;2022-09-24T12:44:45;18.70;99.90
55693;DHT22;41590;53.366;5.212;2022-09-24T12:50:59;18.90;99.90
55693;DHT22;41590;53.366;5.212;2022-09-24T12:57:02;19.10;99.90
55693;DHT22;41590;53.366;5.212;2022-09-24T13:18:20;18.60;99.90
55693;DHT22;41590;53.366;5.212;2022-09-24T14:13:34;18.30;99.90
55693;DHT22;41590;53.366;5.212;2022-09-24T14:37:51;17.60;99.90
55693;DHT22;41590;53.366;5.212;2022-09-24T14:41:24;17.40;99.90
55693;DHT22;41590;53.366;5.212;2022-09-24T14:44:39;17.20;99.90
55693;DHT22;41590;53.366;5.212;2022-09-24T14:50:45;17.10;99.90
55693;DHT22;41590;53.366;5.212;2022-09-24T15:13:38;17.20;99.90
55693;DHT22;41590;53.366;5.212;2022-09-24T15:16:15;17.20;99.90
55693;DHT22;41590;53.366;5.212;2022-09-24T15:18:43;17.10;99.90
55693;DHT22;41590;53.366;5.212;2022-09-24T15:25:05;17.00;99.90
55693;DHT22;41590;53.366;5.212;2022-09-24T15:30:39;17.00;99.90
55693;DHT22;41590;53.366;5.212;2022-09-24T15:33:21;17.00;99.90
55693;DHT22;41590;53.366;5.212;2022-09-24T15:36:10;17.00;99.90
55693;DHT22;41590;53.366;5.212;2022-09-24T15:38:59;16.80;99.90
55693;DHT22;41590;53.366;5.212;2022-09-24T15:41:27;16.90;99.90
55693;DHT22;41590;53.366;5.212;2022-09-24T15:43:58;16.90;99.90
55693;DHT22;41590;53.366;5.212;2022-09-24T15:46:37;16.80;99.90
55693;DHT22;41590;53.366;5.212;2022-09-24T15:49:07;16.80;99.90
55693;DHT22;41590;53.366;5.212;2022-09-24T15:51:37;16.70;99.90
55693;DHT22;41590;53.366;5.212;2022-09-24T15:54:06;16.70;99.90
55693;DHT22;41590;53.366;5.212;2022-09-24T15:56:33;16.80;99.90
55693;DHT22;41590;53.366;5.212;2022-09-24T15:59:03;16.80;99.90
55693;DHT22;41590;53.366;5.212;2022-09-24T16:01:40;16.80;99.90
55693;DHT22;41590;53.366;5.212;2022-09-24T16:04:22;16.50;99.90
55693;DHT22;41590;53.366;5.212;2022-09-24T16:10:34;16.10;99.90
55693;DHT22;41590;53.366;5.212;2022-09-24T16:13:22;16.00;99.90
55693;DHT22;41590;53.366;5.212;2022-09-24T16:15:54;15.90;99.90
55693;DHT22;41590;53.366;5.212;2022-09-24T16:18:24;15.70;99.90
55693;DHT22;41590;53.366;5.212;2022-09-24T16:20:51;15.60;99.90
55693;DHT22;41590;53.366;5.212;2022-09-24T16:23:17;15.50;99.90
55693;DHT22;41590;53.366;5.212;2022-09-24T16:26:05;15.30;99.90
55693;DHT22;41590;53.366;5.212;2022-09-24T16:28:40;15.30;99.90
55693;DHT22;41590;53.366;5.212;2022-09-24T16:31:06;15.20;99.90
55693;DHT22;41590;53.366;5.212;2022-09-24T16:33:37;15.20;99.90
55693;DHT22;41590;53.366;5.212;2022-09-24T16:36:10;15.10;99.90
55693;DHT22;41590;53.366;5.212;2022-09-24T16:38:44;15.10;99.90
55693;DHT22;41590;53.366;5.212;2022-09-24T16:41:26;15.00;99.90
55693;DHT22;41590;53.366;5.212;2022-09-24T16:44:06;14.90;99.90
55693;DHT22;41590;53.366;5.212;2022-09-24T16:46:33;14.90;99.90
55693;DHT22;41590;53.366;5.212;2022-09-24T16:49:00;14.80;99.90
55693;DHT22;41590;53.366;5.212;2022-09-24T16:51:26;14.70;99.90
55693;DHT22;41590;53.366;5.212;2022-09-24T16:53:57;14.70;99.90
55693;DHT22;41590;53.366;5.212;2022-09-24T16:56:30;14.70;99.90
55693;DHT22;41590;53.366;5.212;2022-09-24T16:58:57;14.60;99.90
55693;DHT22;41590;53.366;5.212;2022-09-24T17:01:23;14.50;99.90
55693;DHT22;41590;53.366;5.212;2022-09-24T17:03:55;14.50;99.90
55693;DHT22;41590;53.366;5.212;2022-09-24T17:06:28;14.50;99.90
55693;DHT22;41590;53.366;5.212;2022-09-24T17:08:55;14.50;99.90
55693;DHT22;41590;53.366;5.212;2022-09-24T17:11:42;14.50;99.90
55693;DHT22;41590;53.366;5.212;2022-09-24T17:14:12;14.50;99.90
55693;DHT22;41590;53.366;5.212;2022-09-24T17:16:41;14.50;99.90
55693;DHT22;41590;53.366;5.212;2022-09-24T17:19:09;14.50;99.90
55693;DHT22;41590;53.366;5.212;2022-09-24T17:21:37;14.50;99.90
55693;DHT22;41590;53.366;5.212;2022-09-24T17:24:12;14.50;99.90
55693;DHT22;41590;53.366;5.212;2022-09-24T17:26:38;14.40;99.90
55693;DHT22;41590;53.366;5.212;2022-09-24T17:29:14;14.30;99.90
55693;DHT22;41590;53.366;5.212;2022-09-24T17:31:42;14.20;99.90
55693;DHT22;41590;53.366;5.212;2022-09-24T17:34:10;14.20;99.90
55693;DHT22;41590;53.366;5.212;2022-09-24T17:36:39;14.00;99.90
55693;DHT22;41590;53.366;5.212;2022-09-24T17:39:11;14.00;99.90
55693;DHT22;41590;53.366;5.212;2022-09-24T17:41:37;13.90;99.90
55693;DHT22;41590;53.366;5.212;2022-09-24T17:44:06;14.00;99.90
55693;DHT22;41590;53.366;5.212;2022-09-24T17:46:40;14.00;99.90
55693;DHT22;41590;53.366;5.212;2022-09-24T17:49:11;13.90;99.90
55693;DHT22;41590;53.366;5.212;2022-09-24T17:51:42;13.90;99.90
55693;DHT22;41590;53.366;5.212;2022-09-24T17:54:14;13.90;99.90
55693;DHT22;41590;53.366;5.212;2022-09-24T17:56:40;13.80;99.90
55693;DHT22;41590;53.366;5.212;2022-09-24T17:59:10;13.80;99.90
55693;DHT22;41590;53.366;5.212;2022-09-24T18:01:50;13.70;99.90
55693;DHT22;41590;53.366;5.212;2022-09-24T18:04:20;13.70;99.90
55693;DHT22;41590;53.366;5.212;2022-09-24T18:06:47;13.70;99.90
55693;DHT22;41590;53.366;5.212;2022-09-24T18:09:15;13.70;99.90
55693;DHT22;41590;53.366;5.212;2022-09-24T18:11:50;13.70;99.90
55693;DHT22;41590;53.366;5.212;2022-09-24T18:14:21;13.60;99.90
55693;DHT22;41590;53.366;5.212;2022-09-24T18:16:47;13.60;99.90
55693;DHT22;41590;53.366;5.212;2022-09-24T18:19:16;13.50;99.90
55693;DHT22;41590;53.366;5.212;2022-09-24T18:21:44;13.50;99.90
55693;DHT22;41590;53.366;5.212;2022-09-24T18:24:10;13.50;99.90
55693;DHT22;41590;53.366;5.212;2022-09-24T18:26:38;13.50;99.90
55693;DHT22;41590;53.366;5.212;2022-09-24T18:29:14;13.50;99.90
55693;DHT22;41590;53.366;5.212;2022-09-24T18:31:42;13.50;99.90
55693;DHT22;41590;53.366;5.212;2022-09-24T18:34:12;13.60;99.90
55693;DHT22;41590;53.366;5.212;2022-09-24T18:36:40;13.60;99.90
55693;DHT22;41590;53.366;5.212;2022-09-24T18:39:08;13.60;99.90
55693;DHT22;41590;53.366;5.212;2022-09-24T18:41:38;13.70;99.90
55693;DHT22;41590;53.366;5.212;2022-09-24T18:44:05;13.70;99.90
55693;DHT22;41590;53.366;5.212;2022-09-24T18:46:33;13.70;99.90
55693;DHT22;41590;53.366;5.212;2022-09-24T18:49:00;13.70;99.90
55693;DHT22;41590;53.366;5.212;2022-09-24T18:51:32;13.70;99.90
55693;DHT22;41590;53.366;5.212;2022-09-24T18:54:00;13.70;99.90
55693;DHT22;41590;53.366;5.212;2022-09-24T18:56:28;13.70;99.90
55693;DHT22;41590;53.366;5.212;2022-09-24T18:59:12;13.70;99.90
55693;DHT22;41590;53.366;5.212;2022-09-24T19:01:45;13.80;99.90
55693;DHT22;41590;53.366;5.212;2022-09-24T19:04:12;13.70;99.90
55693;DHT22;41590;53.366;5.212;2022-09-24T19:06:40;13.70;99.90
55693;DHT22;41590;53.366;5.212;2022-09-24T19:09:07;13.60;99.90
55693;DHT22;41590;53.366;5.212;2022-09-24T19:11:34;13.60;99.90
55693;DHT22;41590;53.366;5.212;2022-09-24T19:14:00;13.60;99.90
55693;DHT22;41590;53.366;5.212;2022-09-24T19:16:30;13.50;99.90
55693;DHT22;41590;53.366;5.212;2022-09-24T19:18:59;13.60;99.90
55693;DHT22;41590;53.366;5.212;2022-09-24T19:21:25;13.60;99.90
55693;DHT22;41590;53.366;5.212;2022-09-24T19:23:56;13.60;99.90
55693;DHT22;41590;53.366;5.212;2022-09-24T19:26:31;13.60;99.90
55693;DHT22;41590;53.366;5.212;2022-09-24T19:28:59;13.70;99.90
55693;DHT22;41590;53.366;5.212;2022-09-24T19:31:43;13.70;99.90
55693;DHT22;41590;53.366;5.212;2022-09-24T19:34:15;13.70;99.90
55693;DHT22;41590;53.366;5.212;2022-09-24T19:36:42;13.70;99.90
55693;DHT22;41590;53.366;5.212;2022-09-24T19:39:15;13.80;99.90
55693;DHT22;41590;53.366;5.212;2022-09-24T19:41:41;13.70;99.90
55693;DHT22;41590;53.366;5.212;2022-09-24T19:44:16;13.60;99.90
55693;DHT22;41590;53.366;5.212;2022-09-24T19:46:44;13.50;99.90
55693;DHT22;41590;53.366;5.212;2022-09-24T19:49:11;13.50;99.90
55693;DHT22;41590;53.366;5.212;2022-09-24T19:51:46;13.40;99.90
55693;DHT22;41590;53.366;5.212;2022-09-24T19:54:16;13.40;99.90
55693;DHT22;41590;53.366;5.212;2022-09-24T19:56:44;13.40;99.90
55693;DHT22;41590;53.366;5.212;2022-09-24T19:59:14;13.30;99.90
55693;DHT22;41590;53.366;5.212;2022-09-24T20:01:44;13.30;99.90
55693;DHT22;41590;53.366;5.212;2022-09-24T20:04:11;13.40;99.90
55693;DHT22;41590;53.366;5.212;2022-09-24T20:06:43;13.30;99.90
55693;DHT22;41590;53.366;5.212;2022-09-24T20:09:11;13.30;99.90
55693;DHT22;41590;53.366;5.212;2022-09-24T20:11:42;13.20;99.90
55693;DHT22;41590;53.366;5.212;2022-09-24T20:14:21;13.20;99.90
55693;DHT22;41590;53.366;5.212;2022-09-24T20:16:50;13.30;99.90
55693;DHT22;41590;53.366;5.212;2022-09-24T20:19:16;13.20;99.90
55693;DHT22;41590;53.366;5.212;2022-09-24T20:21:48;13.20;99.90
55693;DHT22;41590;53.366;5.212;2022-09-24T20:24:21;13.10;99.90
55693;DHT22;41590;53.366;5.212;2022-09-24T20:26:54;13.10;99.90
55693;DHT22;41590;53.366;5.212;2022-09-24T20:29:41;13.10;99.90
55693;DHT22;41590;53.366;5.212;2022-09-24T20:32:08;13.10;99.90
55693;DHT22;41590;53.366;5.212;2022-09-24T20:34:35;13.10;99.90
55693;DHT22;41590;53.366;5.212;2022-09-24T20:37:06;13.10;99.90
55693;DHT22;41590;53.366;5.212;2022-09-24T20:39:33;13.10;99.90
55693;DHT22;41590;53.366;5.212;2022-09-24T20:42:02;13.10;99.90
55693;DHT22;41590;53.366;5.212;2022-09-24T20:44:33;13.10;99.90
55693;DHT22;41590;53.366;5.212;2022-09-24T20:47:00;13.00;99.90
55693;DHT22;41590;53.366;5.212;2022-09-24T20:49:27;13.00;99.90
55693;DHT22;41590;53.366;5.212;2022-09-24T20:51:59;13.00;99.90
55693;DHT22;41590;53.366;5.212;2022-09-24T20:54:29;13.00;99.90
55693;DHT22;41590;53.366;5.212;2022-09-24T20:56:58;12.90;99.90
55693;DHT22;41590;53.366;5.212;2022-09-24T20:59:28;12.90;99.90
55693;DHT22;41590;53.366;5.212;2022-09-24T21:01:55;12.80;99.90
55693;DHT22;41590;53.366;5.212;2022-09-24T21:04:22;12.80;99.90
55693;DHT22;41590;53.366;5.212;2022-09-24T21:06:57;12.70;99.90
55693;DHT22;41590;53.366;5.212;2022-09-24T21:09:23;12.70;99.90
55693;DHT22;41590;53.366;5.212;2022-09-24T21:11:50;12.70;99.90
55693;DHT22;41590;53.366;5.212;2022-09-24T21:14:18;12.60;99.90
55693;DHT22;41590;53.366;5.212;2022-09-24T21:16:44;12.60;99.90
55693;DHT22;41590;53.366;5.212;2022-09-24T21:19:15;12.60;99.90
55693;DHT22;41590;53.366;5.212;2022-09-24T21:21:42;12.70;99.90
55693;DHT22;41590;53.366;5.212;2022-09-24T21:24:10;12.60;99.90
55693;DHT22;41590;53.366;5.212;2022-09-24T21:26:40;12.70;99.90
55693;DHT22;41590;53.366;5.212;2022-09-24T21:29:11;12.60;99.90
55693;DHT22;41590;53.366;5.212;2022-09-24T21:31:41;12.70;99.90
55693;DHT22;41590;53.366;5.212;2022-09-24T21:34:14;12.60;99.90
55693;DHT22;41590;53.366;5.212;2022-09-24T21:36:42;12.60;99.90
55693;DHT22;41590;53.366;5.212;2022-09-24T21:39:22;12.50;99.90
55693;DHT22;41590;53.366;5.212;2022-09-24T21:41:50;12.60;99.90
55693;DHT22;41590;53.366;5.212;2022-09-24T21:44:24;12.50;99.90
55693;DHT22;41590;53.366;5.212;2022-09-24T21:46:55;12.50;99.90
55693;DHT22;41590;53.366;5.212;2022-09-24T21:49:21;12.40;99.90
55693;DHT22;41590;53.366;5.212;2022-09-24T21:51:48;12.50;99.90
55693;DHT22;41590;53.366;5.212;2022-09-24T21:54:16;12.50;99.90
55693;DHT22;41590;53.366;5.212;2022-09-24T21:56:43;12.50;99.90
55693;DHT22;41590;53.366;5.212;2022-09-24T21:59:15;12.50;99.90
55693;DHT22;41590;53.366;5.212;2022-09-24T22:02:00;12.50;99.90
55693;DHT22;41590;53.366;5.212;2022-09-24T22:04:26;12.50;99.90
55693;DHT22;41590;53.366;5.212;2022-09-24T22:06:52;12.50;99.90
55693;DHT22;41590;53.366;5.212;2022-09-24T22:09:20;12.50;99.90
55693;DHT22;41590;53.366;5.212;2022-09-24T22:11:46;12.50;99.90
55693;DHT22;41590;53.366;5.212;2022-09-24T22:14:17;12.50;99.90
55693;DHT22;41590;53.366;5.212;2022-09-24T22:16:43;12.50;99.90
55693;DHT22;41590;53.366;5.212;2022-09-24T22:19:09;12.50;99.90
55693;DHT22;41590;53.366;5.212;2022-09-24T22:21:36;12.50;99.90